Time;durP1;ratioP1;P1;durP2;ratioP2;P2;SDS_P1;SDS_P2;PMS_P1;PMS_P2;Temp;Humidity;BMP_temperature;BMP_pressure;BME280_temperature;BME280_humidity;BME280_pressure;Samples;Min_cycle;Max_cycle;Signal;HPM_P1;HPM_P2
2022/12/03 02:15:50;;;;;;;10.53;7.03;;;;;;;-1.76;81.61;101302.82;1822139;78;24511;-69
2022/12/03 02:18:19;;;;;;;8.57;6.30;;;;;;;-1.73;81.53;101313.61;1755550;81;20973;-68
2022/12/03 02:21:06;;;;;;;9.50;6.50;;;;;;;-1.68;81.33;101310.09;1764102;81;21063;-70
2022/12/03 02:24:03;;;;;;;12.30;6.07;;;;;;;-1.61;81.26;101307.27;1758205;81;21009;-69
2022/12/03 02:26:29;;;;;;;8.27;6.90;;;;;;;-1.56;81.00;101309.03;1764026;81;20974;-70
2022/12/03 02:28:56;;;;;;;8.47;5.40;;;;;;;-1.50;80.89;101315.11;1763865;81;20998;-69
2022/12/03 02:31:22;;;;;;;9.77;5.73;;;;;;;-1.47;80.86;101310.39;1764111;81;20958;-69
2022/12/03 02:33:49;;;;;;;8.10;5.70;;;;;;;-1.40;80.54;101317.30;1781003;79;22398;-70
2022/12/03 02:36:15;;;;;;;8.30;5.33;;;;;;;-1.37;80.53;101313.07;1767024;80;20929;-69
2022/12/03 02:38:44;;;;;;;11.30;7.13;;;;;;;-1.35;80.45;101323.02;1793360;80;20990;-68
2022/12/03 02:42:33;;;;;;;10.93;8.93;;;;;;;-1.35;80.37;101319.06;1791426;80;20993;-69
2022/12/03 02:43:41;;;;;;;11.17;7.97;;;;;;;-1.33;80.41;101319.75;1775422;79;21043;-68
2022/12/03 02:46:07;;;;;;;11.50;8.53;;;;;;;-1.28;80.37;101323.30;1765125;79;21125;-70
2022/12/03 02:48:35;;;;;;;8.47;7.33;;;;;;;-1.25;80.32;101321.73;1768457;79;22255;-70
2022/12/03 02:51:05;;;;;;;8.67;6.43;;;;;;;-1.20;80.35;101322.98;1791011;80;20982;-69
2022/12/03 02:53:43;;;;;;;10.23;6.83;;;;;;;-1.16;80.17;101327.53;1791816;80;21027;-68
2022/12/03 02:56:13;;;;;;;7.77;6.63;;;;;;;-1.18;80.19;101325.02;1791474;80;21026;-69
2022/12/03 02:58:41;;;;;;;9.43;6.23;;;;;;;-1.14;80.22;101322.94;1784627;79;21201;-69
2022/12/03 03:01:07;;;;;;;9.77;7.33;;;;;;;-1.11;80.30;101324.01;1711920;82;21024;-68
2022/12/03 03:03:34;;;;;;;7.20;5.80;;;;;;;-1.08;80.35;101327.20;1734726;82;21009;-69
2022/12/03 03:06:01;;;;;;;12.67;7.03;;;;;;;-0.99;80.22;101328.20;1701715;83;21084;-70
2022/12/03 03:08:28;;;;;;;10.43;7.63;;;;;;;-1.00;80.20;101332.64;1755902;80;21025;-69
2022/12/03 03:10:55;;;;;;;12.63;7.63;;;;;;;-0.97;80.13;101335.03;1758998;81;21231;-69
2022/12/03 03:13:21;;;;;;;11.73;8.17;;;;;;;-0.89;80.15;101329.89;1759033;81;20958;-70
2022/12/03 03:15:48;;;;;;;10.70;7.50;;;;;;;-0.85;79.98;101334.89;1733252;81;20927;-69
2022/12/03 03:18:16;;;;;;;10.33;7.80;;;;;;;-0.82;79.97;101330.20;1766857;80;21070;-68
2022/12/03 03:20:43;;;;;;;9.50;7.27;;;;;;;-0.78;79.87;101333.39;1756670;81;21038;-69
2022/12/03 03:23:16;;;;;;;12.80;8.10;;;;;;;-0.74;79.87;101335.63;1771593;80;21136;-69
2022/12/03 03:25:50;;;;;;;10.35;8.45;;;;;;;-0.75;79.52;101341.03;1771902;81;21758;-68
2022/12/03 03:28:18;;;;;;;10.20;7.77;;;;;;;-0.81;79.55;101341.56;1762337;80;20966;-70
2022/12/03 03:30:45;;;;;;;12.57;9.30;;;;;;;-0.82;79.73;101340.77;1758464;81;20998;-70
2022/12/03 03:33:12;;;;;;;11.33;8.43;;;;;;;-0.74;79.92;101334.78;1758600;81;21041;-69
2022/12/03 03:35:38;;;;;;;14.03;8.53;;;;;;;-0.65;79.86;101340.56;1758839;81;21074;-69
2022/12/03 03:38:05;;;;;;;15.30;9.63;;;;;;;-0.60;79.77;101333.91;1757856;80;20978;-68
2022/12/03 03:40:32;;;;;;;10.20;7.67;;;;;;;-0.55;79.62;101340.09;1758574;81;20989;-69
2022/12/03 03:42:58;;;;;;;11.63;7.87;;;;;;;-0.59;79.57;101336.91;1758436;81;21087;-69
2022/12/03 03:45:25;;;;;;;10.70;6.87;;;;;;;-0.56;79.54;101338.42;1758376;81;21501;-68
2022/12/03 03:47:52;;;;;;;9.20;7.30;;;;;;;-0.60;79.57;101342.31;1762429;80;21090;-70
2022/12/03 03:50:19;;;;;;;10.60;7.40;;;;;;;-0.57;79.81;101339.39;1771771;81;20967;-69
2022/12/03 03:52:45;;;;;;;13.23;6.80;;;;;;;-0.55;79.54;101338.29;1770391;80;20979;-69
2022/12/03 03:55:12;;;;;;;9.73;7.87;;;;;;;-0.57;79.55;101346.83;1728308;83;21098;-69
2022/12/03 03:57:38;;;;;;;13.80;8.60;;;;;;;-0.53;79.61;101340.80;1728279;82;21557;-69
2022/12/03 04:00:07;;;;;;;12.87;9.00;;;;;;;-0.48;79.64;101346.52;1704153;83;21140;-68
2022/12/03 04:02:33;;;;;;;10.53;8.40;;;;;;;-0.43;79.53;101348.23;1675168;83;21147;-69
2022/12/03 04:05:00;;;;;;;8.80;7.90;;;;;;;-0.45;79.52;101343.58;1725490;81;21018;-69
2022/12/03 04:07:27;;;;;;;10.13;7.17;;;;;;;-0.41;79.74;101342.81;1742568;81;22339;-68
2022/12/03 04:09:54;;;;;;;9.40;7.43;;;;;;;-0.39;79.62;101342.20;1742391;81;21066;-69
2022/12/03 04:15:08;;;;;;;12.53;9.20;;;;;;;-0.54;79.45;101346.58;1774490;80;20897;-70
2022/12/03 04:17:35;;;;;;;12.07;7.93;;;;;;;-0.48;79.61;101354.45;1783606;80;21050;-69
2022/12/03 04:20:03;;;;;;;11.13;8.27;;;;;;;-0.47;79.68;101358.73;1783740;80;20951;-69
2022/12/03 04:22:38;;;;;;;11.50;8.90;;;;;;;-0.42;79.86;101357.84;1764077;80;21095;-69
2022/12/03 04:30:38;;;;;;;9.53;6.83;;;;;;;-0.31;79.47;101365.64;1764706;81;21017;-68
2022/12/03 04:35:45;;;;;;;15.80;9.63;;;;;;;-0.24;79.40;101369.38;1733116;80;21042;-69
2022/12/03 04:38:13;;;;;;;14.00;9.60;;;;;;;-0.20;79.35;101369.48;1783680;80;21172;-67
2022/12/03 04:43:25;;;;;;;12.30;8.63;;;;;;;-0.06;79.20;101373.51;1775936;80;20949;-67
2022/12/03 04:45:52;;;;;;;10.23;7.30;;;;;;;0.00;78.88;101379.57;1765497;81;20969;-68
2022/12/03 04:48:18;;;;;;;9.17;8.07;;;;;;;-0.01;78.68;101375.25;1766014;81;21073;-69
2022/12/03 04:50:45;;;;;;;10.88;7.25;;;;;;;-0.03;78.71;101377.19;1778207;80;21297;-67
2022/12/03 04:53:12;;;;;;;13.72;7.80;;;;;;;-0.06;78.45;101379.64;1766158;80;21594;-68
2022/12/03 04:55:38;;;;;;;12.80;10.60;;;;;;;-0.08;78.51;101376.28;1785020;80;21035;-68
2022/12/03 04:58:04;;;;;;;15.05;10.03;;;;;;;-0.08;78.61;101381.58;1783361;80;21488;-68
2022/12/03 05:00:31;;;;;;;8.83;6.92;;;;;;;-0.05;78.62;101387.09;1771228;80;22202;-68
2022/12/03 05:02:57;;;;;;;8.97;6.80;;;;;;;0.00;78.65;101390.95;1764763;81;22139;-68
2022/12/03 05:05:24;;;;;;;10.23;6.78;;;;;;;0.04;78.50;101393.34;1764440;81;21012;-69
2022/12/03 05:07:50;;;;;;;11.83;7.65;;;;;;;-0.02;78.28;101392.09;1764489;80;21005;-69
2022/12/03 05:10:17;;;;;;;9.85;8.15;;;;;;;-0.04;78.31;101392.22;1764463;81;21040;-70
2022/12/03 05:12:44;;;;;;;14.05;10.60;;;;;;;-0.04;78.17;101397.50;1776330;80;21030;-69
2022/12/03 05:15:10;;;;;;;11.77;9.97;;;;;;;-0.08;78.29;101397.92;1779326;80;21243;-69
2022/12/03 05:17:37;;;;;;;15.63;9.53;;;;;;;-0.11;78.44;101397.73;1762593;80;20990;-69
2022/12/03 05:22:50;;;;;;;11.88;7.65;;;;;;;-0.09;78.68;101405.50;1724491;81;21021;-67
2022/12/03 05:25:17;;;;;;;13.15;8.93;;;;;;;-0.12;78.69;101409.76;1758586;81;21014;-68
2022/12/03 05:27:43;;;;;;;11.30;9.63;;;;;;;-0.14;78.74;101413.02;1757902;80;21076;-68
2022/12/03 05:30:12;;;;;;;14.87;8.20;;;;;;;-0.17;78.83;101416.78;1758290;81;21519;-66
2022/12/03 05:32:39;;;;;;;10.63;8.03;;;;;;;-0.17;79.05;101422.56;1754391;81;20935;-69
2022/12/03 05:35:07;;;;;;;16.37;10.65;;;;;;;-0.15;79.14;101425.43;1742171;81;20967;-68
2022/12/03 05:37:34;;;;;;;12.73;8.98;;;;;;;-0.18;79.11;101420.40;1755444;80;21585;-69
2022/12/03 05:40:01;;;;;;;14.18;8.83;;;;;;;-0.19;79.33;101431.13;1758210;81;21222;-68
2022/12/03 05:45:12;;;;;;;15.27;9.77;;;;;;;-0.28;79.83;101434.57;1758316;81;20973;-66
2022/12/03 05:47:38;;;;;;;18.40;10.67;;;;;;;-0.33;80.15;101432.34;1763977;80;21624;-69
2022/12/03 05:50:07;;;;;;;15.23;10.03;;;;;;;-0.36;80.33;101435.27;1771705;81;21039;-69
2022/12/03 05:52:33;;;;;;;19.97;10.43;;;;;;;-0.34;80.63;101441.27;1771619;80;21852;-70
2022/12/03 05:55:00;;;;;;;19.10;11.40;;;;;;;-0.33;80.71;101445.56;1742945;81;21594;-69
2022/12/03 05:57:28;;;;;;;19.33;12.67;;;;;;;-0.29;80.82;101441.70;1760710;80;20974;-69
2022/12/03 05:59:55;;;;;;;27.50;14.80;;;;;;;-0.29;81.04;101450.11;1768779;80;21046;-69
2022/12/03 06:02:22;;;;;;;25.93;13.57;;;;;;;-0.32;81.30;101448.56;1760548;80;21525;-67
2022/12/03 06:04:48;;;;;;;24.93;12.53;;;;;;;-0.34;81.85;101447.04;1746582;80;21149;-69
2022/12/03 06:07:15;;;;;;;22.07;11.20;;;;;;;-0.37;82.24;101444.65;1747979;80;21536;-69
2022/12/03 06:09:41;;;;;;;18.73;11.22;;;;;;;-0.45;83.26;101446.18;1758013;81;21006;-70
2022/12/03 06:12:08;;;;;;;18.42;10.65;;;;;;;-0.49;83.49;101450.07;1766031;80;21014;-71
2022/12/03 06:14:34;;;;;;;17.85;9.63;;;;;;;-0.47;83.80;101456.03;1763070;81;21049;-70
2022/12/03 06:17:01;;;;;;;15.17;7.87;;;;;;;-0.46;84.14;101453.75;1757385;80;21291;-70
2022/12/03 10:50:21;;;;;;;18.93;13.17;;;;;;;-1.78;95.61;101569.81;1742643;79;26710;-76
2022/12/03 10:52:48;;;;;;;14.27;10.40;;;;;;;-1.81;94.42;101572.69;1718311;82;21015;-75
2022/12/03 10:55:16;;;;;;;13.37;9.13;;;;;;;-1.78;93.64;101573.77;1730569;82;21059;-76
2022/12/03 10:57:44;;;;;;;17.83;12.23;;;;;;;-1.76;92.23;101578.42;1726120;82;21054;-77
2022/12/03 11:00:17;;;;;;;12.83;8.70;;;;;;;-1.71;91.26;101588.12;1728343;82;20908;-75
2022/12/03 11:02:43;;;;;;;19.32;9.65;;;;;;;-1.66;89.68;101582.00;1716793;83;21626;-76
2022/12/03 11:05:19;;;;;;;15.97;10.03;;;;;;;-1.55;89.56;101589.05;1716450;83;20951;-75
2022/12/03 11:07:45;;;;;;;15.50;9.50;;;;;;;-1.53;86.52;101589.27;1716858;82;21224;-74
2022/12/03 11:10:14;;;;;;;10.60;6.47;;;;;;;-1.51;86.16;101587.83;1714756;82;20983;-75
2022/12/03 11:12:40;;;;;;;12.87;7.80;;;;;;;-1.55;84.13;101595.16;1699395;82;20969;-77
2022/12/03 11:15:15;;;;;;;15.10;8.30;;;;;;;-1.52;84.44;101595.38;1703249;82;20977;-75
2022/12/03 11:17:48;;;;;;;12.20;8.43;;;;;;;-1.50;84.14;101595.63;1710994;82;21073;-75
2022/12/03 11:20:32;;;;;;;16.77;10.23;;;;;;;-1.48;83.72;101592.36;1717599;82;21008;-76
2022/12/03 11:22:58;;;;;;;14.83;9.20;;;;;;;-1.46;83.67;101594.41;1696986;82;21051;-76
2022/12/03 11:25:30;;;;;;;24.23;11.30;;;;;;;-1.40;83.48;101587.31;1703313;82;21048;-73
2022/12/03 11:28:18;;;;;;;28.20;11.43;;;;;;;-1.37;83.17;101602.89;1728800;82;21598;-73
2022/12/03 11:30:57;;;;;;;19.17;9.90;;;;;;;-1.38;82.45;101585.84;1713104;83;21109;-74
2022/12/03 11:33:33;;;;;;;21.90;12.57;;;;;;;-1.38;81.93;101592.45;1709319;83;21204;-71
2022/12/03 11:36:11;;;;;;;18.30;10.07;;;;;;;-1.30;82.43;101597.11;1707655;83;21324;-73
2022/12/03 11:38:53;;;;;;;21.80;13.60;;;;;;;-1.20;82.16;101589.59;1648982;84;21011;-73
2022/12/03 11:41:31;;;;;;;18.40;9.97;;;;;;;-1.19;81.68;101592.60;1683599;84;21110;-75
2022/12/03 11:44:06;;;;;;;21.70;11.07;;;;;;;-1.18;81.79;101592.96;1673376;84;21542;-77
2022/12/03 11:46:43;;;;;;;15.17;9.57;;;;;;;-1.11;81.96;101602.06;1656404;84;21163;-72
2022/12/03 11:49:36;;;;;;;13.70;9.10;;;;;;;-1.11;81.07;101594.62;1640741;86;20968;-71
2022/12/03 11:52:18;;;;;;;15.23;8.70;;;;;;;-1.15;80.60;101597.17;1675962;84;21018;-74
2022/12/03 11:55:03;;;;;;;17.23;9.03;;;;;;;-1.18;80.75;101607.48;1660628;84;21018;-79
2022/12/03 11:57:33;;;;;;;22.93;11.90;;;;;;;-1.19;80.71;101615.52;1685730;84;21026;-72
2022/12/03 12:00:05;;;;;;;19.60;10.53;;;;;;;-1.19;81.04;101610.23;1687939;84;21809;-73
2022/12/03 12:02:34;;;;;;;20.17;10.73;;;;;;;-1.20;81.09;101614.68;1693933;84;21591;-73
2022/12/03 12:05:28;;;;;;;30.13;11.83;;;;;;;-1.25;81.60;101612.09;1677811;84;21011;-70
2022/12/03 12:07:55;;;;;;;24.10;10.60;;;;;;;-1.23;82.07;101610.98;1668935;84;21032;-68
2022/12/03 12:10:46;;;;;;;19.50;10.37;;;;;;;-1.26;82.28;101614.37;1669877;84;21116;-76
2022/12/03 12:13:33;;;;;;;16.83;10.43;;;;;;;-1.28;82.23;101613.64;1678519;84;21451;-75
2022/12/03 12:16:09;;;;;;;16.70;10.90;;;;;;;-1.27;82.27;101612.20;1667454;84;21069;-74
2022/12/03 12:18:49;;;;;;;17.90;10.97;;;;;;;-1.23;81.88;101616.74;1670654;84;21569;-73
2022/12/03 12:21:40;;;;;;;14.23;10.30;;;;;;;-1.26;81.94;101612.56;1676325;85;20985;-72
2022/12/03 12:24:37;;;;;;;22.37;11.30;;;;;;;-1.26;82.05;101617.84;1676270;85;21101;-73
2022/12/03 12:27:33;;;;;;;18.53;10.73;;;;;;;-1.33;82.08;101614.86;1684159;84;21158;-70
2022/12/03 12:30:15;;;;;;;13.57;8.73;;;;;;;-1.37;82.21;101613.44;1648298;85;20931;-74
2022/12/03 12:32:51;;;;;;;16.50;8.83;;;;;;;-1.39;82.69;101617.19;1654596;86;21126;-70
2022/12/03 12:35:28;;;;;;;15.00;9.37;;;;;;;-1.46;83.44;101631.35;1648107;87;21549;-72
2022/12/03 12:38:18;;;;;;;18.77;10.00;;;;;;;-1.53;83.86;101630.16;1650103;85;21067;-73
2022/12/03 12:40:48;;;;;;;13.83;9.10;;;;;;;-1.56;84.27;101636.17;1649154;86;21228;-76
2022/12/03 12:43:30;;;;;;;14.60;8.43;;;;;;;-1.58;84.51;101641.56;1627939;85;21047;-74
2022/12/03 12:46:02;;;;;;;13.10;8.60;;;;;;;-1.66;84.82;101649.27;1623713;85;21669;-74
2022/12/03 12:48:34;;;;;;;11.87;8.20;;;;;;;-1.63;84.97;101646.38;1659798;84;21089;-75
2022/12/03 12:51:14;;;;;;;11.93;8.08;;;;;;;-1.61;84.86;101641.82;1651409;84;21074;-75
2022/12/03 12:53:43;;;;;;;10.37;7.77;;;;;;;-1.62;84.97;101640.61;1643153;84;21165;-74
2022/12/03 12:56:19;;;;;;;12.53;8.93;;;;;;;-1.61;84.81;101648.89;1642016;83;21015;-70
2022/12/03 12:58:46;;;;;;;17.33;10.00;;;;;;;-1.62;84.37;101650.69;1668133;83;21060;-71
2022/12/03 13:01:25;;;;;;;9.90;8.03;;;;;;;-1.63;84.40;101656.92;1675962;85;21085;-73
2022/12/03 13:03:52;;;;;;;15.87;9.80;;;;;;;-1.63;84.60;101662.70;1608491;88;21146;-71
2022/12/03 13:06:24;;;;;;;23.33;12.50;;;;;;;-1.61;84.97;101662.08;1651138;85;21143;-73
2022/12/03 13:08:51;;;;;;;18.87;10.63;;;;;;;-1.59;85.33;101656.22;1695108;84;21038;-76
2022/12/03 13:11:40;;;;;;;16.40;10.23;;;;;;;-1.58;85.73;101663.98;1669163;85;21113;-76
2022/12/03 13:14:17;;;;;;;13.13;9.13;;;;;;;-1.56;85.96;101661.23;1667760;85;20995;-80
2022/12/03 13:16:45;;;;;;;14.67;10.93;;;;;;;-1.52;86.65;101660.86;1664568;85;21049;-74
2022/12/03 13:19:28;;;;;;;16.00;9.43;;;;;;;-1.53;86.63;101661.81;1664836;85;21162;-70
2022/12/03 13:21:59;;;;;;;16.17;10.75;;;;;;;-1.53;87.39;101664.45;1663808;85;21080;-70
2022/12/03 13:24:38;;;;;;;12.70;8.60;;;;;;;-1.60;88.05;101658.49;1646964;86;21571;-78
2022/12/03 13:27:19;;;;;;;11.30;7.43;;;;;;;-1.65;88.48;101667.25;1604676;86;21610;-70
2022/12/03 13:30:15;;;;;;;16.10;9.80;;;;;;;-1.69;88.91;101671.10;1653690;84;21030;-76
2022/12/03 13:32:44;;;;;;;24.03;15.57;;;;;;;-1.65;89.30;101669.89;1648401;86;21554;-77
2022/12/03 13:35:34;;;;;;;22.87;13.07;;;;;;;-1.63;89.59;101673.26;1647390;86;21096;-77
2022/12/03 13:38:01;;;;;;;23.47;13.40;;;;;;;-1.63;89.85;101681.98;1664899;85;21068;-72
2022/12/03 13:40:30;;;;;;;25.10;12.77;;;;;;;-1.65;90.29;101678.64;1641668;87;21613;-73
2022/12/03 13:42:58;;;;;;;25.77;12.53;;;;;;;-1.64;90.52;101684.77;1660918;85;21590;-73
2022/12/03 13:45:39;;;;;;;18.30;11.13;;;;;;;-1.69;91.26;101686.93;1656513;85;21126;-70
2022/12/03 13:48:24;;;;;;;13.47;9.20;;;;;;;-1.74;91.30;101690.41;1670262;85;21545;-74
2022/12/03 13:50:52;;;;;;;15.73;10.03;;;;;;;-1.74;91.72;101697.00;1656646;85;21803;-76
2022/12/03 13:53:26;;;;;;;20.70;12.90;;;;;;;-1.72;92.08;101694.59;1671094;85;21027;-74
2022/12/03 13:56:32;;;;;;;23.43;13.17;;;;;;;-1.73;92.44;101697.37;1670964;85;21119;-80
2022/12/03 13:59:02;;;;;;;17.23;11.47;;;;;;;-1.75;92.75;101694.84;1671045;85;21278;-72
2022/12/03 18:30:21;;;;;;;16.70;11.00;;;;;;;-1.94;87.61;101844.91;1785704;80;23350;-77
2022/12/03 18:32:50;;;;;;;18.33;11.53;;;;;;;-1.94;87.29;101853.66;1736870;81;21029;-79
2022/12/03 18:35:17;;;;;;;18.77;11.73;;;;;;;-1.91;86.77;101849.94;1724885;81;21993;-71
2022/12/03 18:37:44;;;;;;;19.97;12.27;;;;;;;-1.96;86.39;101858.20;1761590;80;21015;-75
2022/12/03 18:40:20;;;;;;;22.07;12.60;;;;;;;-1.96;86.44;101858.67;1760143;80;21515;-73
2022/12/03 18:42:46;;;;;;;19.10;11.77;;;;;;;-1.92;86.35;101866.74;1757333;80;21011;-72
2022/12/03 18:45:13;;;;;;;23.30;11.87;;;;;;;-1.91;86.19;101868.40;1760338;80;21049;-74
2022/12/03 18:47:42;;;;;;;22.07;9.53;;;;;;;-1.94;85.77;101865.53;1758285;80;21178;-72
2022/12/03 18:50:10;;;;;;;18.63;9.73;;;;;;;-2.01;85.57;101869.56;1763279;80;21142;-78
2022/12/03 18:52:37;;;;;;;11.83;7.27;;;;;;;-2.08;85.35;101872.80;1747111;79;21512;-79
2022/12/03 18:55:13;;;;;;;18.73;9.70;;;;;;;-2.13;85.33;101881.52;1754195;80;21257;-72
2022/12/03 18:57:42;;;;;;;18.70;10.03;;;;;;;-2.22;85.33;101879.95;1762868;80;21115;-71
2022/12/03 19:00:11;;;;;;;20.07;11.13;;;;;;;-2.25;85.59;101868.29;1774554;79;21094;-75
2022/12/03 19:02:39;;;;;;;19.47;12.47;;;;;;;-2.28;85.72;101871.64;1763157;80;21695;-77
2022/12/03 19:05:09;;;;;;;21.30;11.97;;;;;;;-2.27;85.83;101882.55;1730800;80;21074;-77
2022/12/03 19:07:42;;;;;;;31.40;17.10;;;;;;;-2.24;85.95;101887.58;1758259;81;21675;-76
2022/12/03 19:10:10;;;;;;;30.43;15.70;;;;;;;-2.16;86.06;101890.52;1771924;80;21026;-74
2022/12/03 19:12:39;;;;;;;34.00;14.63;;;;;;;-2.09;86.07;101893.05;1775290;79;21564;-72
2022/12/03 19:15:08;;;;;;;19.67;11.97;;;;;;;-2.15;86.01;101884.27;1743364;80;21049;-70
2022/12/03 19:17:38;;;;;;;22.13;10.23;;;;;;;-2.28;86.09;101888.77;1713699;81;21122;-71
2022/12/03 19:20:15;;;;;;;14.70;9.77;;;;;;;-2.30;86.12;101894.14;1731326;81;21059;-75
2022/12/03 19:22:47;;;;;;;11.15;7.22;;;;;;;-2.34;86.26;101899.28;1752191;80;22088;-74
2022/12/03 19:25:14;;;;;;;16.87;11.40;;;;;;;-2.34;86.47;101887.42;1754622;80;21281;-77
2022/12/03 19:27:42;;;;;;;18.10;9.80;;;;;;;-2.28;86.52;101889.61;1752828;81;21057;-77
2022/12/03 19:30:11;;;;;;;18.30;11.33;;;;;;;-2.27;86.23;101901.84;1749873;80;21017;-76
2022/12/03 19:32:41;;;;;;;18.57;12.33;;;;;;;-2.32;86.25;101896.55;1747599;80;21095;-71
2022/12/03 19:35:14;;;;;;;17.60;11.03;;;;;;;-2.34;86.30;101894.01;1738885;81;21143;-72
2022/12/03 19:37:45;;;;;;;19.97;13.90;;;;;;;-2.34;86.39;101905.87;1740947;81;21232;-67
2022/12/03 19:40:12;;;;;;;16.00;10.43;;;;;;;-2.36;86.33;101903.00;1698492;83;21067;-67
2022/12/03 19:42:43;;;;;;;20.57;12.70;;;;;;;-2.38;86.25;101913.63;1713616;83;21011;-68
2022/12/03 19:45:11;;;;;;;17.70;10.90;;;;;;;-2.40;86.17;101922.12;1711719;81;21109;-69
2022/12/03 19:47:41;;;;;;;23.17;13.43;;;;;;;-2.40;86.27;101918.16;1687236;82;21173;-70
2022/12/03 19:50:16;;;;;;;19.77;11.63;;;;;;;-2.43;86.25;101924.14;1732648;81;21226;-71
2022/12/03 19:52:44;;;;;;;17.60;10.63;;;;;;;-2.45;86.28;101919.00;1720832;81;21017;-64
2022/12/03 19:55:12;;;;;;;18.57;11.87;;;;;;;-2.47;86.19;101927.48;1747175;80;21058;-67
2022/12/03 19:57:41;;;;;;;17.77;11.87;;;;;;;-2.48;86.42;101923.63;1746871;80;20955;-66
2022/12/03 20:00:10;;;;;;;15.90;9.87;;;;;;;-2.50;86.46;101919.81;1745125;80;21511;-68
2022/12/03 20:02:39;;;;;;;17.37;10.17;;;;;;;-2.49;86.40;101921.94;1723353;81;21322;-74
2022/12/03 20:05:09;;;;;;;15.80;9.87;;;;;;;-2.52;85.94;101927.44;1746083;80;21058;-78
2022/12/03 20:07:35;;;;;;;15.57;9.80;;;;;;;-2.52;85.80;101937.98;1715136;81;20888;-69
2022/12/03 20:10:06;;;;;;;15.77;9.47;;;;;;;-2.56;85.79;101934.73;1744053;80;21191;-70
2022/12/03 20:12:33;;;;;;;7.83;6.97;;;;;;;-2.54;85.82;101939.40;1743207;80;21558;-70
2022/12/03 20:14:59;;;;;;;16.53;10.47;;;;;;;-2.59;85.60;101927.06;1741418;80;21159;-70
2022/12/03 20:17:26;;;;;;;14.10;9.50;;;;;;;-2.60;85.64;101941.18;1751214;79;20958;-67
2022/12/03 20:19:52;;;;;;;18.87;12.03;;;;;;;-2.54;85.76;101943.86;1747071;80;21041;-67
2022/12/03 20:22:19;;;;;;;14.97;9.50;;;;;;;-2.48;85.68;101941.60;1749018;80;21022;-69
2022/12/03 20:24:46;;;;;;;11.67;8.47;;;;;;;-2.40;85.55;101945.83;1743282;81;21091;-67
2022/12/03 20:27:13;;;;;;;19.63;9.67;;;;;;;-2.43;85.05;101947.38;1739957;80;21187;-67
2022/12/03 20:29:40;;;;;;;17.03;10.30;;;;;;;-2.48;85.05;101946.03;1740514;80;21017;-67
2022/12/03 20:32:07;;;;;;;15.33;10.27;;;;;;;-2.56;85.18;101938.69;1738512;81;21033;-68
2022/12/03 20:34:35;;;;;;;13.83;9.13;;;;;;;-2.58;85.00;101950.27;1740120;80;21074;-68
2022/12/03 20:37:02;;;;;;;15.40;10.53;;;;;;;-2.58;85.16;101955.53;1741297;80;21121;-68
2022/12/03 20:39:28;;;;;;;12.73;8.47;;;;;;;-2.64;85.26;101942.36;1712646;82;21309;-68
2022/12/03 20:41:55;;;;;;;15.00;9.30;;;;;;;-2.70;85.42;101954.63;1690692;83;21048;-70
2022/12/03 20:44:21;;;;;;;13.90;7.97;;;;;;;-2.73;85.65;101957.47;1699767;83;21040;-68
2022/12/03 20:46:48;;;;;;;19.23;10.03;;;;;;;-2.72;85.67;101955.20;1692700;83;21084;-68
2022/12/03 20:49:17;;;;;;;15.70;9.57;;;;;;;-2.66;85.81;101954.78;1693811;83;21115;-69
2022/12/03 20:51:44;;;;;;;9.53;8.53;;;;;;;-2.57;85.77;101954.59;1730678;80;22081;-68
2022/12/03 20:54:13;;;;;;;14.93;9.00;;;;;;;-2.59;85.53;101956.04;1697867;81;22188;-69
2022/12/03 20:56:40;;;;;;;13.77;9.50;;;;;;;-2.62;85.50;101954.08;1734023;81;21128;-68
2022/12/03 20:59:12;;;;;;;13.83;9.27;;;;;;;-2.67;85.57;101943.88;1707017;81;20986;-68
2022/12/03 21:01:39;;;;;;;15.07;9.63;;;;;;;-2.73;85.49;101944.30;1745629;80;21010;-68
2022/12/03 21:04:06;;;;;;;12.40;8.20;;;;;;;-2.78;85.28;101951.71;1722644;80;21152;-68
2022/12/03 21:06:35;;;;;;;11.90;8.87;;;;;;;-2.90;84.92;101946.82;1728783;80;21586;-68
2022/12/03 21:09:04;;;;;;;11.53;7.97;;;;;;;-2.92;85.04;101947.39;1725400;80;21006;-68
2022/12/03 21:11:32;;;;;;;13.13;8.43;;;;;;;-2.93;85.09;101952.78;1721157;80;21118;-67
2022/12/03 21:13:59;;;;;;;19.83;9.77;;;;;;;-3.00;85.28;101952.83;1678768;83;21103;-67
2022/12/03 21:16:29;;;;;;;12.80;10.17;;;;;;;-3.07;85.51;101955.87;1719882;81;21095;-69
2022/12/03 21:18:55;;;;;;;14.60;8.63;;;;;;;-3.09;85.83;101952.53;1699061;82;21295;-67
2022/12/03 21:21:22;;;;;;;17.30;10.93;;;;;;;-3.04;86.08;101954.84;1727882;80;21062;-68
2022/12/03 21:23:51;;;;;;;13.03;8.90;;;;;;;-3.06;86.12;101944.88;1716568;81;21102;-72
2022/12/03 21:26:20;;;;;;;14.07;10.13;;;;;;;-3.06;86.10;101955.41;1728912;81;21057;-72
2022/12/03 21:28:50;;;;;;;14.10;9.70;;;;;;;-3.03;86.23;101947.80;1732580;80;21143;-69
2022/12/03 21:31:20;;;;;;;9.17;7.37;;;;;;;-3.05;86.37;101950.52;1748635;81;21232;-68
2022/12/03 21:33:47;;;;;;;13.70;8.23;;;;;;;-3.12;86.43;101948.78;1716837;83;21089;-71
2022/12/03 21:36:15;;;;;;;14.20;9.90;;;;;;;-3.13;86.69;101947.12;1734488;81;21459;-69
2022/12/03 21:38:43;;;;;;;13.77;9.87;;;;;;;-3.14;86.73;101954.64;1744042;81;21580;-68
2022/12/03 21:41:10;;;;;;;13.53;9.50;;;;;;;-3.12;86.79;101952.72;1724485;81;21268;-68
2022/12/03 21:43:37;;;;;;;12.70;7.80;;;;;;;-3.04;86.75;101954.84;1718017;82;22258;-68
2022/12/03 21:46:07;;;;;;;17.40;9.63;;;;;;;-3.04;86.66;101957.95;1723226;82;21317;-69
2022/12/03 21:48:34;;;;;;;13.53;10.10;;;;;;;-3.07;86.60;101959.48;1728444;82;21070;-69
2022/12/03 21:51:11;;;;;;;20.53;11.03;;;;;;;-3.09;86.51;101958.27;1730042;81;20931;-68
2022/12/03 21:53:38;;;;;;;14.03;10.03;;;;;;;-3.11;86.45;101957.52;1734000;81;21178;-69
2022/12/03 21:56:13;;;;;;;11.73;9.10;;;;;;;-3.13;86.36;101966.02;1723034;81;21263;-68
2022/12/03 21:58:40;;;;;;;13.67;9.23;;;;;;;-3.13;86.41;101966.02;1729044;80;20963;-69
2022/12/03 22:01:16;;;;;;;12.03;9.63;;;;;;;-3.14;86.23;101964.32;1730631;81;20969;-70
2022/12/03 22:03:43;;;;;;;11.37;9.23;;;;;;;-3.11;86.39;101957.05;1721264;81;21017;-70
2022/12/03 22:06:11;;;;;;;11.77;8.07;;;;;;;-3.00;86.30;101958.94;1745275;81;21950;-66
2022/12/03 22:08:37;;;;;;;12.33;9.47;;;;;;;-3.02;85.91;101958.19;1725932;81;21622;-66
2022/12/03 22:11:10;;;;;;;15.03;9.93;;;;;;;-3.01;85.70;101961.67;1699031;82;20987;-67
2022/12/03 22:13:37;;;;;;;15.33;10.20;;;;;;;-3.05;85.58;101957.58;1720094;81;21089;-65
2022/12/03 22:16:10;;;;;;;11.90;9.87;;;;;;;-3.10;85.62;101964.47;1731225;81;21045;-66
2022/12/03 22:18:37;;;;;;;13.10;9.60;;;;;;;-3.16;85.61;101960.94;1714514;81;22212;-68
2022/12/03 22:21:05;;;;;;;14.50;8.87;;;;;;;-3.17;85.71;101973.75;1719162;81;21654;-69
2022/12/03 22:23:33;;;;;;;16.77;10.57;;;;;;;-3.13;85.79;101971.27;1726826;82;22348;-69
2022/12/03 22:26:02;;;;;;;15.87;10.40;;;;;;;-3.14;85.41;101973.06;1723837;81;21589;-71
2022/12/03 22:28:31;;;;;;;13.20;9.23;;;;;;;-3.17;85.48;101966.70;1696406;83;21034;-69
2022/12/03 22:30:57;;;;;;;15.53;10.20;;;;;;;-3.22;85.40;101972.76;1744863;81;21156;-70
2022/12/03 22:33:24;;;;;;;10.37;8.70;;;;;;;-3.24;85.29;101971.16;1736630;81;22524;-70
2022/12/03 22:35:58;;;;;;;11.57;9.07;;;;;;;-3.30;85.22;101968.47;1727946;82;21066;-70
2022/12/03 22:38:27;;;;;;;15.40;10.77;;;;;;;-3.29;85.39;101964.05;1728117;81;22330;-69
2022/12/03 22:40:54;;;;;;;11.73;9.30;;;;;;;-3.35;85.00;101969.25;1723751;81;21084;-68
2022/12/03 22:43:20;;;;;;;14.53;8.90;;;;;;;-3.48;84.93;101971.51;1725861;82;21257;-70
2022/12/03 22:45:47;;;;;;;10.80;9.37;;;;;;;-3.57;85.12;101972.51;1722095;81;21041;-68
2022/12/03 22:48:14;;;;;;;10.43;8.20;;;;;;;-3.61;85.29;101968.87;1693673;81;21593;-69
2022/12/03 22:50:44;;;;;;;11.67;9.97;;;;;;;-3.60;85.42;101979.77;1730651;81;21697;-70
2022/12/03 22:53:11;;;;;;;11.23;8.63;;;;;;;-3.59;85.30;101973.54;1721260;80;21088;-69
2022/12/03 22:55:40;;;;;;;11.30;9.07;;;;;;;-3.62;85.29;101975.91;1723536;82;21251;-69
2022/12/03 22:58:07;;;;;;;12.13;8.30;;;;;;;-3.59;85.33;101974.86;1730497;81;21018;-71
2022/12/03 23:00:38;;;;;;;15.43;10.00;;;;;;;-3.54;85.44;101969.66;1729072;81;21044;-68
2022/12/03 23:03:05;;;;;;;14.23;10.37;;;;;;;-3.43;85.38;101972.04;1723385;81;21043;-68